createdAt,value
2023-04-15T00:01:34.636Z,1.08
2023-04-15T00:04:37.564Z,2.00
2023-04-15T00:07:40.446Z,1.58
2023-04-15T00:10:44.269Z,1.85
2023-04-15T00:13:46.313Z,2.63
2023-04-15T00:16:50.121Z,1.75
2023-04-15T00:19:51.746Z,1.35
2023-04-15T00:22:53.660Z,2.20
2023-04-15T00:25:55.728Z,2.85
2023-04-15T00:28:57.357Z,2.25
2023-04-15T00:31:58.885Z,2.78
2023-04-15T00:35:00.459Z,4.60
2023-04-15T00:38:02.065Z,2.95
2023-04-15T00:41:04.295Z,4.20
2023-04-15T00:44:09.359Z,3.80
2023-04-15T00:47:12.136Z,7.50
2023-04-15T00:50:14.219Z,8.60
2023-04-15T00:53:15.946Z,7.10
2023-04-15T00:56:18.289Z,7.35
2023-04-15T00:59:20.613Z,8.27
2023-04-15T01:02:22.951Z,6.55
2023-04-15T01:05:25.108Z,8.90
2023-04-15T01:08:28.665Z,5.72
2023-04-15T01:11:33.582Z,7.30
2023-04-15T01:14:35.233Z,8.40
2023-04-15T01:17:37.366Z,9.75
2023-04-15T01:20:39.738Z,9.02
2023-04-15T01:23:41.578Z,7.32
2023-04-15T01:26:44.541Z,6.93
2023-04-15T01:29:46.437Z,8.88
2023-04-15T01:32:48.024Z,8.50
2023-04-15T01:35:50.125Z,6.82
2023-04-15T01:38:52.026Z,9.18
2023-04-15T01:41:53.865Z,6.93
2023-04-15T01:44:55.822Z,9.20
2023-04-15T01:47:57.446Z,7.60
2023-04-15T01:50:59.284Z,7.85
2023-04-15T01:54:00.874Z,5.38
2023-04-15T01:57:02.475Z,5.28
2023-04-15T02:00:04.510Z,5.57
2023-04-15T02:03:06.723Z,5.28
2023-04-15T02:06:08.321Z,5.45
2023-04-15T02:09:10.592Z,5.60
2023-04-15T02:12:12.869Z,10.55
2023-04-15T02:15:14.424Z,6.53
2023-04-15T02:18:17.014Z,7.00
2023-04-15T02:21:19.032Z,8.15
2023-04-15T02:24:21.222Z,5.85
2023-04-15T02:27:22.885Z,9.30
2023-04-15T02:30:25.588Z,6.03
2023-04-15T02:33:27.205Z,7.35
2023-04-15T02:36:29.853Z,7.72
2023-04-15T02:39:31.414Z,5.93
2023-04-15T02:42:33.056Z,6.35
2023-04-15T02:45:34.819Z,6.75
2023-04-15T02:48:36.942Z,6.95
2023-04-15T02:51:38.931Z,7.40
2023-04-15T02:54:40.524Z,5.43
2023-04-15T02:57:42.160Z,6.93
2023-04-15T03:00:43.724Z,7.45
2023-04-15T03:03:45.600Z,5.88
2023-04-15T03:06:47.565Z,6.72
2023-04-15T03:09:49.135Z,6.78
2023-04-15T03:12:50.897Z,5.07
2023-04-15T03:15:52.585Z,8.48
2023-04-15T03:18:54.139Z,5.55
2023-04-15T03:21:55.938Z,7.55
2023-04-15T03:24:57.829Z,7.47
2023-04-15T03:28:00.235Z,6.82
2023-04-15T03:31:01.838Z,7.13
2023-04-15T03:34:03.446Z,6.72
2023-04-15T03:37:05.685Z,6.25
2023-04-15T03:40:08.039Z,6.85
2023-04-15T03:43:09.779Z,7.93
2023-04-15T03:46:11.372Z,13.25
2023-04-15T03:49:14.377Z,8.00
2023-04-15T03:52:16.008Z,6.32
2023-04-15T03:55:17.701Z,5.90
2023-04-15T03:58:19.226Z,6.43
2023-04-15T04:01:20.813Z,5.53
2023-04-15T04:04:22.523Z,6.05
2023-04-15T04:07:25.028Z,7.50
2023-04-15T04:10:27.108Z,4.65
2023-04-15T04:13:28.681Z,6.50
2023-04-15T04:16:30.581Z,6.10
2023-04-15T04:19:32.282Z,6.28
2023-04-15T04:22:39.301Z,7.43
2023-04-15T04:25:41.524Z,7.35
2023-04-15T04:28:43.077Z,6.45
2023-04-15T04:31:44.761Z,8.38
2023-04-15T04:34:46.422Z,7.22
2023-04-15T04:37:48.098Z,9.38
2023-04-15T04:40:49.746Z,12.05
2023-04-15T04:43:51.405Z,8.23
2023-04-15T04:46:53.044Z,8.82
2023-04-15T04:49:54.672Z,9.27
2023-04-15T04:52:56.463Z,8.95
2023-04-15T04:55:58.362Z,7.22
2023-04-15T04:59:00.219Z,14.27
2023-04-15T05:02:02.116Z,13.40
2023-04-15T05:05:03.900Z,15.13
2023-04-15T05:08:05.856Z,14.43
2023-04-15T05:11:07.437Z,14.15
2023-04-15T05:14:08.995Z,17.83
2023-04-15T05:17:11.555Z,23.77
2023-04-15T05:20:13.761Z,20.95
2023-04-15T05:23:15.505Z,18.00
2023-04-15T05:26:17.762Z,12.32
2023-04-15T05:29:19.342Z,13.60
2023-04-15T05:32:20.971Z,15.18
2023-04-15T05:35:23.048Z,9.43
2023-04-15T05:38:24.617Z,6.53
2023-04-15T05:41:26.404Z,6.05
2023-04-15T05:44:27.978Z,4.45
2023-04-15T05:47:29.665Z,3.90
2023-04-15T05:50:31.364Z,4.50
2023-04-15T05:53:32.975Z,4.00
2023-04-15T05:56:34.580Z,6.70
2023-04-15T05:59:36.160Z,2.92
2023-04-15T06:02:39.137Z,3.67
2023-04-15T06:05:40.809Z,4.88
2023-04-15T06:08:42.582Z,4.05
2023-04-15T06:11:44.147Z,4.07
2023-04-15T06:14:45.707Z,4.93
2023-04-15T06:17:47.479Z,3.47
2023-04-15T06:20:49.318Z,3.47
2023-04-15T06:23:51.024Z,3.40
2023-04-15T06:26:52.631Z,2.72
2023-04-15T06:29:54.252Z,2.60
2023-04-15T06:32:56.249Z,3.72
2023-04-15T06:35:57.881Z,2.45
2023-04-15T06:38:59.766Z,2.67
2023-04-15T06:42:01.691Z,2.58
2023-04-15T06:45:03.438Z,4.00
2023-04-15T06:48:05.452Z,3.20
2023-04-15T06:51:07.108Z,5.38
2023-04-15T06:54:08.713Z,3.85
2023-04-15T06:57:10.563Z,4.40
2023-04-15T07:00:12.615Z,9.07
2023-04-15T07:03:15.161Z,7.68
2023-04-15T07:06:17.077Z,8.68
2023-04-15T07:09:18.630Z,10.82
2023-04-15T07:12:20.913Z,11.10
2023-04-15T07:15:23.595Z,8.52
2023-04-15T07:18:25.621Z,7.18
2023-04-15T07:21:27.740Z,9.85
2023-04-15T07:24:30.145Z,7.15
2023-04-15T07:27:31.754Z,5.18
2023-04-15T07:30:33.323Z,7.25
2023-04-15T07:33:34.878Z,8.95
2023-04-15T07:36:36.974Z,8.43
2023-04-15T07:39:38.551Z,6.28
2023-04-15T07:42:41.462Z,6.07
2023-04-15T07:45:43.326Z,5.75
2023-04-15T07:48:45.099Z,3.42
2023-04-15T07:51:46.785Z,3.92
2023-04-15T07:54:48.329Z,6.07
2023-04-15T07:57:51.098Z,4.70
2023-04-15T08:00:52.904Z,6.70
2023-04-15T08:03:55.457Z,5.65
2023-04-15T08:06:58.060Z,4.78
2023-04-15T08:09:59.661Z,6.13
2023-04-15T08:13:01.344Z,8.02
2023-04-15T08:16:21.041Z,8.32
2023-04-15T08:19:23.046Z,6.25
2023-04-15T08:22:24.611Z,5.60
2023-04-15T08:25:26.585Z,1.45
2023-04-15T08:28:28.204Z,1.13
2023-04-15T08:31:30.798Z,0.77
2023-04-15T08:34:32.541Z,1.15
2023-04-15T08:37:34.072Z,1.38
2023-04-15T08:40:41.947Z,0.82
2023-04-15T08:43:51.828Z,3.08
2023-04-15T08:46:57.163Z,0.40
2023-04-15T08:49:59.355Z,0.25
2023-04-15T08:53:01.288Z,0.38
2023-04-15T08:56:07.718Z,1.05
2023-04-15T08:59:09.913Z,0.75
2023-04-15T09:02:12.204Z,0.68
2023-04-15T09:05:13.956Z,1.23
2023-04-15T09:08:15.774Z,0.70
2023-04-15T09:11:20.026Z,0.82
2023-04-15T09:14:21.923Z,0.73
2023-04-15T09:17:24.755Z,0.75
2023-04-15T09:20:26.846Z,1.20
2023-04-15T09:23:28.406Z,1.95
2023-04-15T09:26:34.115Z,1.50
2023-04-15T09:29:37.062Z,0.95
2023-04-15T09:32:51.909Z,0.40
2023-04-15T09:36:02.210Z,0.93
2023-04-15T09:39:03.963Z,0.95
2023-04-15T09:42:07.240Z,1.48
2023-04-15T09:45:12.182Z,0.77
2023-04-15T09:48:26.919Z,0.82
2023-04-15T09:51:38.027Z,0.65
2023-04-15T09:54:39.637Z,1.67
2023-04-15T09:57:41.891Z,1.05
2023-04-15T10:00:44.005Z,1.45
2023-04-15T10:03:46.351Z,1.10
2023-04-15T10:06:48.312Z,0.80
2023-04-15T10:09:50.085Z,1.65
2023-04-15T10:12:52.628Z,1.73
2023-04-15T10:16:21.299Z,2.35
2023-04-15T10:19:27.706Z,0.88
2023-04-15T10:22:30.156Z,2.95
2023-04-15T10:25:33.743Z,3.35
2023-04-15T10:28:35.333Z,2.10
2023-04-15T10:31:38.423Z,2.55
2023-04-15T10:34:41.020Z,1.27
2023-04-15T10:37:42.611Z,3.25
2023-04-15T10:40:46.275Z,1.73
2023-04-15T10:43:59.838Z,1.33
2023-04-15T10:47:01.768Z,2.80
2023-04-15T10:50:03.651Z,1.83
2023-04-15T10:53:05.698Z,2.90
2023-04-15T10:56:07.628Z,1.27
2023-04-15T10:59:10.057Z,2.47
2023-04-15T11:02:14.366Z,2.38
2023-04-15T11:05:17.093Z,1.90
2023-04-15T11:08:19.379Z,1.13
2023-04-15T11:11:21.226Z,3.33
2023-04-15T11:14:22.964Z,2.38
2023-04-15T11:17:31.137Z,4.03
2023-04-15T11:20:32.958Z,3.78
2023-04-15T11:23:40.022Z,2.47
2023-04-15T11:26:41.635Z,2.60
2023-04-15T11:29:44.278Z,2.35
2023-04-15T11:32:45.914Z,3.35
2023-04-15T11:35:47.635Z,1.80
2023-04-15T11:38:49.287Z,2.85
2023-04-15T11:41:50.987Z,2.97
2023-04-15T11:45:07.493Z,2.97
2023-04-15T11:48:11.164Z,1.33
2023-04-15T11:51:14.008Z,0.98
2023-04-15T11:54:19.617Z,1.27
2023-04-15T11:57:21.478Z,0.45
2023-04-15T12:00:23.162Z,1.42
2023-04-15T12:03:32.163Z,2.28
2023-04-15T12:06:37.371Z,2.67
2023-04-15T12:09:39.940Z,7.30
2023-04-15T12:12:42.240Z,7.13
2023-04-15T12:15:44.775Z,7.43
2023-04-15T12:18:55.983Z,3.65
2023-04-15T12:22:01.044Z,2.40
2023-04-15T12:25:03.129Z,2.13
2023-04-15T12:28:11.407Z,2.25
2023-04-15T12:31:14.610Z,1.95
2023-04-15T12:34:16.890Z,1.88
2023-04-15T12:37:18.888Z,1.40
2023-04-15T12:40:20.723Z,2.10
2023-04-15T12:43:22.317Z,1.60
2023-04-15T12:46:24.019Z,1.25
2023-04-15T12:49:26.760Z,1.90
2023-04-15T12:52:28.347Z,1.95
2023-04-15T12:55:30.620Z,1.80
2023-04-15T12:58:32.626Z,0.52
2023-04-15T13:01:34.314Z,2.00
2023-04-15T13:04:36.128Z,0.57
2023-04-15T13:07:37.766Z,3.53
2023-04-15T13:10:39.589Z,2.25
2023-04-15T13:13:41.497Z,0.73
2023-04-15T13:16:43.216Z,0.70
2023-04-15T13:19:44.806Z,2.10
2023-04-15T13:22:46.498Z,6.88
2023-04-15T13:25:48.167Z,3.70
2023-04-15T13:28:49.847Z,4.10
2023-04-15T13:31:51.493Z,1.85
2023-04-15T13:34:53.238Z,0.90
2023-04-15T13:37:55.726Z,0.30
2023-04-15T13:40:57.322Z,0.88
2023-04-15T13:43:58.948Z,0.80
2023-04-15T13:47:01.030Z,0.60
2023-04-15T13:50:02.709Z,0.85
2023-04-15T13:53:04.295Z,0.22
2023-04-15T13:56:07.559Z,0.90
2023-04-15T13:59:09.375Z,1.45
2023-04-15T14:02:11.167Z,2.25
2023-04-15T14:05:12.806Z,1.80
2023-04-15T14:08:14.594Z,1.77
2023-04-15T14:11:16.180Z,1.48
2023-04-15T14:14:18.036Z,2.75
2023-04-15T14:17:19.714Z,2.03
2023-04-15T14:20:21.317Z,3.30
2023-04-15T14:23:23.550Z,3.38
2023-04-15T14:26:25.471Z,3.47
2023-04-15T14:29:27.725Z,4.72
2023-04-15T14:32:29.347Z,3.95
2023-04-15T14:35:31.410Z,2.80
2023-04-15T14:38:39.765Z,2.53
2023-04-15T14:41:41.378Z,3.95
2023-04-15T14:44:44.781Z,1.65
2023-04-15T14:47:47.229Z,2.40
2023-04-15T14:50:48.917Z,1.75
2023-04-15T14:53:50.606Z,3.30
2023-04-15T14:56:52.225Z,1.27
2023-04-15T14:59:56.711Z,2.75
2023-04-15T15:02:58.991Z,11.90
2023-04-15T15:06:00.688Z,2.92
2023-04-15T15:09:02.434Z,3.63
2023-04-15T15:12:04.219Z,3.40
2023-04-15T15:15:15.486Z,4.50
2023-04-15T15:18:21.641Z,1.95
2023-04-15T15:21:23.864Z,1.90
2023-04-15T15:24:25.645Z,2.78
2023-04-15T15:27:27.255Z,3.72
2023-04-15T15:30:28.878Z,2.35
2023-04-15T15:33:30.604Z,2.10
2023-04-15T15:36:32.193Z,2.42
2023-04-15T15:39:35.362Z,2.30
2023-04-15T15:42:36.949Z,2.65
2023-04-15T15:45:38.762Z,2.90
2023-04-15T15:48:40.525Z,3.65
2023-04-15T15:51:42.114Z,3.33
2023-04-15T15:54:43.782Z,1.60
2023-04-15T15:57:45.591Z,9.93
2023-04-15T16:00:47.456Z,7.18
2023-04-15T16:03:49.268Z,4.47
2023-04-15T16:06:51.034Z,7.82
2023-04-15T16:09:52.774Z,8.13
2023-04-15T16:12:54.853Z,6.80
2023-04-15T16:15:56.487Z,5.00
2023-04-15T16:18:58.227Z,3.92
2023-04-15T16:22:01.443Z,3.92
2023-04-15T16:25:03.652Z,2.55
2023-04-15T16:28:14.692Z,3.47
2023-04-15T16:31:20.648Z,5.95
2023-04-15T16:34:23.544Z,19.25
2023-04-15T16:37:25.115Z,10.45
2023-04-15T16:40:26.894Z,4.53
2023-04-15T16:43:29.066Z,3.65
2023-04-15T16:46:31.171Z,6.28
2023-04-15T16:49:34.895Z,4.85
2023-04-15T16:52:36.574Z,5.75
2023-04-15T16:55:39.379Z,8.05
2023-04-15T16:58:41.020Z,5.60
2023-04-15T17:01:42.761Z,12.30
2023-04-15T17:04:44.341Z,13.18
2023-04-15T17:07:46.087Z,16.65
2023-04-15T17:10:47.723Z,13.65
2023-04-15T17:13:49.476Z,7.93
2023-04-15T17:16:51.060Z,8.65
2023-04-15T17:19:52.721Z,10.20
2023-04-15T17:22:54.327Z,9.65
2023-04-15T17:25:55.953Z,9.63
2023-04-15T17:28:57.665Z,6.57
2023-04-15T17:31:59.925Z,5.65
2023-04-15T17:35:05.610Z,3.75
2023-04-15T17:38:07.170Z,3.80
2023-04-15T17:41:08.805Z,4.30
2023-04-15T17:44:10.404Z,7.15
2023-04-15T17:47:12.018Z,7.93
2023-04-15T17:50:13.617Z,9.27
2023-04-15T17:53:15.301Z,7.85
2023-04-15T17:56:16.903Z,16.88
2023-04-15T17:59:18.685Z,11.52
2023-04-15T18:02:20.612Z,11.57
2023-04-15T18:05:22.389Z,9.38
2023-04-15T18:08:24.028Z,11.88
2023-04-15T18:11:25.615Z,11.00
2023-04-15T18:14:34.254Z,142.05
2023-04-15T18:17:36.617Z,22.58
2023-04-15T18:20:38.207Z,80.50
2023-04-15T18:23:39.803Z,102.68
2023-04-15T18:26:41.521Z,88.88
2023-04-15T18:29:43.685Z,30.75
2023-04-15T18:32:45.493Z,32.80
2023-04-15T18:35:49.354Z,29.63
2023-04-15T18:38:51.532Z,24.05
2023-04-15T18:41:53.575Z,23.88
2023-04-15T18:44:55.327Z,20.40
2023-04-15T18:47:56.957Z,26.13
2023-04-15T18:50:58.765Z,17.63
2023-04-15T18:54:00.332Z,13.68
2023-04-15T18:57:03.926Z,16.02
2023-04-15T19:00:06.119Z,19.65
2023-04-15T19:03:08.060Z,18.30
2023-04-15T19:06:09.717Z,9.60
2023-04-15T19:09:11.434Z,7.97
2023-04-15T19:12:13.013Z,7.57
2023-04-15T19:15:14.591Z,6.85
2023-04-15T19:18:16.447Z,68.18
2023-04-15T19:21:18.049Z,27.88
2023-04-15T19:24:20.333Z,25.13
2023-04-15T19:27:22.019Z,32.42
2023-04-15T19:30:23.603Z,37.60
2023-04-15T19:33:27.392Z,20.52
2023-04-15T19:36:29.598Z,21.63
2023-04-15T19:39:31.262Z,20.17
2023-04-15T19:42:32.834Z,23.92
2023-04-15T19:45:34.522Z,22.45
2023-04-15T19:48:36.851Z,19.83
2023-04-15T19:51:38.400Z,17.75
2023-04-15T19:54:39.969Z,16.08
2023-04-15T19:57:41.810Z,16.52
2023-04-15T20:00:43.441Z,11.98
2023-04-15T20:03:45.195Z,10.95
2023-04-15T20:06:46.928Z,13.90
2023-04-15T20:09:48.476Z,16.48
2023-04-15T20:12:53.170Z,13.10
2023-04-15T20:15:55.133Z,25.25
2023-04-15T20:18:56.806Z,20.17
2023-04-15T20:21:58.358Z,26.63
2023-04-15T20:25:03.990Z,24.10
2023-04-15T20:28:05.661Z,23.95
2023-04-15T20:31:07.368Z,15.30
2023-04-15T20:34:11.838Z,14.15
2023-04-15T20:37:13.740Z,11.07
2023-04-15T20:40:15.310Z,9.32
2023-04-15T20:43:16.915Z,8.50
2023-04-15T20:46:21.558Z,6.22
2023-04-15T20:49:23.441Z,8.10
2023-04-15T20:52:25.002Z,7.65
2023-04-15T20:55:27.543Z,7.60
2023-04-15T20:58:29.895Z,7.50
2023-04-15T21:01:31.578Z,7.50
2023-04-15T21:04:33.200Z,6.85
2023-04-15T21:07:34.755Z,13.07
2023-04-15T21:10:36.739Z,13.88
2023-04-15T21:13:38.373Z,15.43
2023-04-15T21:16:40.097Z,16.05
2023-04-15T21:19:42.627Z,14.10
2023-04-15T21:22:44.703Z,14.63
2023-04-15T21:25:46.292Z,9.75
2023-04-15T21:28:47.899Z,13.30
2023-04-15T21:31:49.718Z,23.92
2023-04-15T21:34:51.299Z,18.77
2023-04-15T21:37:52.826Z,19.70
2023-04-15T21:40:55.227Z,21.58
2023-04-15T21:43:57.254Z,15.52
2023-04-15T21:46:58.821Z,20.90
2023-04-15T21:50:00.505Z,15.25
2023-04-15T21:53:02.211Z,15.38
2023-04-15T21:56:04.005Z,16.40
2023-04-15T21:59:05.836Z,17.13
2023-04-15T22:02:07.654Z,23.73
2023-04-15T22:05:09.321Z,23.92
2023-04-15T22:08:10.870Z,29.52
2023-04-15T22:11:26.457Z,26.33
2023-04-15T22:14:29.999Z,23.48
2023-04-15T22:17:31.751Z,21.70
2023-04-15T22:20:33.469Z,17.77
2023-04-15T22:23:35.108Z,20.73
2023-04-15T22:26:36.654Z,24.77
2023-04-15T22:29:38.257Z,21.38
2023-04-15T22:32:40.130Z,18.58
2023-04-15T22:35:41.743Z,23.60
2023-04-15T22:38:43.604Z,21.15
2023-04-15T22:41:46.517Z,22.30
2023-04-15T22:44:48.539Z,20.15
2023-04-15T22:47:50.164Z,20.92
2023-04-15T22:50:51.963Z,26.00
2023-04-15T22:53:54.547Z,23.73
2023-04-15T22:56:56.635Z,24.90
2023-04-15T22:59:58.222Z,23.52
2023-04-15T23:03:00.002Z,25.60
2023-04-15T23:06:01.928Z,30.55
2023-04-15T23:09:03.717Z,23.42
2023-04-15T23:12:06.221Z,19.67
2023-04-15T23:15:08.433Z,19.50
2023-04-15T23:18:10.097Z,21.23
2023-04-15T23:21:11.806Z,19.80
2023-04-15T23:24:13.429Z,18.83
2023-04-15T23:27:15.030Z,15.73
2023-04-15T23:30:16.728Z,20.90
2023-04-15T23:33:18.379Z,18.27
2023-04-15T23:36:19.933Z,15.50
2023-04-15T23:39:21.481Z,18.10
2023-04-15T23:42:24.189Z,20.13
2023-04-15T23:45:25.764Z,17.80
2023-04-15T23:48:27.384Z,18.60
2023-04-15T23:51:28.932Z,20.40
2023-04-15T23:54:30.658Z,19.17
2023-04-15T23:57:32.290Z,17.40
